createdAt,value
2019-02-23T00:01:20.317Z,104011.28
2019-02-23T00:03:53.256Z,104003.27
2019-02-23T00:06:29.738Z,104009.70
2019-02-23T00:09:00.950Z,104007.19
2019-02-23T00:11:35.351Z,104003.61
2019-02-23T00:14:09.353Z,103997.33
2019-02-23T00:16:42.109Z,103997.53
2019-02-23T00:19:24.381Z,103989.47
2019-02-23T00:21:49.709Z,103988.37
2019-02-23T00:24:22.687Z,103994.24
2019-02-23T00:26:55.537Z,103998.66
2019-02-23T00:29:28.364Z,104000.05
2019-02-23T00:32:01.144Z,104004.46
2019-02-23T00:34:34.384Z,104003.41
2019-02-23T00:37:07.331Z,104010.88
2019-02-23T00:39:40.163Z,104008.32
2019-02-23T00:42:12.888Z,104002.48
2019-02-23T00:44:45.735Z,104001.11
2019-02-23T00:47:18.656Z,104001.12
2019-02-23T00:49:51.524Z,104001.38
2019-02-23T00:52:24.373Z,103992.39
2019-02-23T00:54:57.258Z,103995.50
2019-02-23T00:57:29.966Z,103982.03
2019-02-23T01:00:02.830Z,103993.91
2019-02-23T01:02:37.242Z,103984.05
2019-02-23T01:05:10.083Z,103977.54
2019-02-23T01:07:42.939Z,103965.28
2019-02-23T01:10:15.778Z,103965.95
2019-02-23T01:12:48.554Z,103960.25
2019-02-23T01:15:21.270Z,103966.28
2019-02-23T01:17:54.192Z,103959.72
2019-02-23T01:20:26.898Z,103944.62
2019-02-23T01:22:59.734Z,103939.18
2019-02-23T01:25:32.527Z,103954.84
2019-02-23T01:28:05.383Z,103962.36
2019-02-23T01:30:38.228Z,103958.52
2019-02-23T01:33:11.072Z,103958.83
2019-02-23T01:35:43.922Z,103972.08
2019-02-23T01:38:16.791Z,103973.88
2019-02-23T01:40:49.670Z,103971.48
2019-02-23T01:43:22.474Z,103958.33
2019-02-23T01:45:55.257Z,103963.34
2019-02-23T01:48:29.006Z,103963.72
2019-02-23T01:51:01.918Z,103960.21
2019-02-23T01:53:34.677Z,103971.09
2019-02-23T01:56:07.435Z,103965.01
2019-02-23T01:58:40.416Z,103972.66
2019-02-23T02:01:13.752Z,103995.39
2019-02-23T02:03:46.559Z,103989.33
2019-02-23T02:06:19.534Z,103998.66
2019-02-23T02:08:52.389Z,104007.38
2019-02-23T02:11:25.994Z,104016.47
2019-02-23T02:13:58.831Z,103999.34
2019-02-23T02:16:31.760Z,104011.03
2019-02-23T02:19:04.688Z,104009.33
2019-02-23T02:21:37.504Z,104008.47
2019-02-23T02:24:10.229Z,104006.34
2019-02-23T02:26:43.059Z,103990.22
2019-02-23T02:29:15.904Z,103980.09
2019-02-23T02:32:06.086Z,103975.94
2019-02-23T02:34:38.894Z,103976.33
2019-02-23T02:37:11.750Z,103973.83
2019-02-23T02:39:44.545Z,103967.88
2019-02-23T02:42:18.700Z,103951.95
2019-02-23T02:44:51.502Z,103950.94
2019-02-23T02:47:30.661Z,103943.74
2019-02-23T02:50:03.453Z,103914.06
2019-02-23T02:52:36.405Z,103912.03
2019-02-23T02:55:10.268Z,103911.95
2019-02-23T02:57:44.025Z,103917.04
2019-02-23T03:00:16.958Z,103922.34
2019-02-23T03:02:49.879Z,103916.47
2019-02-23T03:05:22.829Z,103927.87
2019-02-23T03:07:55.738Z,103927.58
2019-02-23T03:10:28.701Z,103917.44
2019-02-23T03:13:01.531Z,103927.77
2019-02-23T03:15:34.392Z,103932.12
2019-02-23T03:18:07.349Z,103943.14
2019-02-23T03:20:40.153Z,103952.79
2019-02-23T03:23:12.928Z,103957.38
2019-02-23T03:25:45.707Z,103950.28
2019-02-23T03:28:18.461Z,103942.11
2019-02-23T03:30:51.468Z,103946.83
2019-02-23T03:33:24.272Z,103943.58
2019-02-23T03:35:57.098Z,103941.72
2019-02-23T03:38:29.835Z,103932.06
2019-02-23T03:41:02.584Z,103922.12
2019-02-23T03:43:35.570Z,103907.73
2019-02-23T03:46:08.495Z,103923.70
2019-02-23T03:48:41.287Z,103923.11
2019-02-23T03:51:14.275Z,103917.52
2019-02-23T03:53:47.080Z,103915.19
2019-02-23T03:56:19.962Z,103915.72
2019-02-23T03:58:52.883Z,103909.80
2019-02-23T04:01:25.704Z,103916.00
2019-02-23T04:03:58.467Z,103921.14
2019-02-23T04:06:31.191Z,103922.16
2019-02-23T04:09:05.628Z,103916.32
2019-02-23T04:11:38.830Z,103912.88
2019-02-23T04:14:11.627Z,103897.56
2019-02-23T04:16:44.608Z,103882.15
2019-02-23T04:19:17.354Z,103896.22
2019-02-23T04:21:50.145Z,103893.77
2019-02-23T04:24:22.989Z,103896.94
2019-02-23T04:26:55.889Z,103889.33
2019-02-23T04:29:29.738Z,103875.13
2019-02-23T04:32:02.540Z,103864.70
2019-02-23T04:34:35.430Z,103867.16
2019-02-23T04:37:08.285Z,103863.93
2019-02-23T04:39:41.027Z,103885.34
2019-02-23T04:42:13.897Z,103894.52
2019-02-23T04:44:46.664Z,103905.35
2019-02-23T04:47:19.392Z,103890.02
2019-02-23T04:49:56.103Z,103892.13
2019-02-23T04:52:28.827Z,103902.95
2019-02-23T04:55:01.695Z,103901.97
2019-02-23T04:57:35.656Z,103908.97
2019-02-23T05:00:10.665Z,103914.58
2019-02-23T05:02:43.598Z,103902.17
2019-02-23T05:05:16.401Z,103904.64
2019-02-23T05:07:49.144Z,103916.92
2019-02-23T05:10:21.942Z,103921.66
2019-02-23T05:12:54.971Z,103922.00
2019-02-23T05:15:27.758Z,103929.79
2019-02-23T05:18:00.642Z,103932.39
2019-02-23T05:20:33.475Z,103929.92
2019-02-23T05:23:06.656Z,103925.96
2019-02-23T05:25:39.517Z,103913.66
2019-02-23T05:28:12.264Z,103927.80
2019-02-23T05:30:45.235Z,103923.42
2019-02-23T05:33:18.047Z,103940.11
2019-02-23T05:35:51.157Z,103955.31
2019-02-23T05:38:23.886Z,103960.60
2019-02-23T05:40:56.807Z,103959.28
2019-02-23T05:43:29.582Z,103964.59
2019-02-23T05:46:05.426Z,103953.75
2019-02-23T05:48:38.981Z,103950.69
2019-02-23T05:51:11.921Z,103957.98
2019-02-23T05:53:44.913Z,103954.08
2019-02-23T05:56:17.731Z,103938.60
2019-02-23T05:58:50.637Z,103938.27
2019-02-23T06:01:23.906Z,103954.79
2019-02-23T06:03:57.091Z,103964.17
2019-02-23T06:06:29.855Z,103963.43
2019-02-23T06:09:02.650Z,103966.95
2019-02-23T06:11:37.061Z,103965.61
2019-02-23T06:14:09.859Z,103959.41
2019-02-23T06:16:42.600Z,103954.84
2019-02-23T06:19:16.283Z,103960.47
2019-02-23T06:21:53.623Z,103973.55
2019-02-23T06:24:23.742Z,103981.43
2019-02-23T06:26:56.590Z,103981.46
2019-02-23T06:29:29.361Z,103990.52
2019-02-23T06:32:02.078Z,103988.95
2019-02-23T06:34:34.773Z,103985.45
2019-02-23T06:37:07.577Z,103990.06
2019-02-23T06:39:40.267Z,103979.54
2019-02-23T06:42:13.129Z,103976.13
2019-02-23T06:44:45.896Z,103973.88
2019-02-23T06:47:18.731Z,103985.17
2019-02-23T06:49:51.572Z,103987.36
2019-02-23T06:52:24.429Z,103979.15
2019-02-23T06:54:58.430Z,103985.44
2019-02-23T06:57:31.507Z,103998.11
2019-02-23T07:00:04.366Z,104009.82
2019-02-23T07:02:37.311Z,104018.63
2019-02-23T07:05:11.224Z,104025.83
2019-02-23T07:07:44.099Z,104012.63
2019-02-23T07:10:17.008Z,104021.74
2019-02-23T07:12:49.920Z,104012.64
2019-02-23T07:15:23.891Z,103998.23
2019-02-23T07:17:56.894Z,103993.41
2019-02-23T07:20:30.739Z,103998.56
2019-02-23T07:23:03.641Z,104005.14
2019-02-23T07:32:50.928Z,103912.88
2019-02-23T07:35:23.850Z,103923.41
2019-02-23T07:37:56.705Z,103920.02
2019-02-23T07:40:30.427Z,103915.29
2019-02-23T07:43:03.195Z,103919.85
2019-02-23T07:45:38.618Z,103916.55
2019-02-23T07:48:12.794Z,103923.39
2019-02-23T07:50:45.560Z,103926.03
2019-02-23T07:53:18.490Z,103931.00
2019-02-23T07:55:51.353Z,103922.81
2019-02-23T07:58:24.309Z,103913.70
2019-02-23T08:00:57.299Z,103919.11
2019-02-23T08:03:30.394Z,103926.67
2019-02-23T08:06:03.351Z,103931.34
2019-02-23T08:08:39.802Z,103939.19
2019-02-23T08:11:13.686Z,103954.50
2019-02-23T08:14:08.141Z,103969.84
2019-02-23T08:16:45.243Z,103979.83
2019-02-23T08:19:18.692Z,103973.11
2019-02-23T08:21:52.560Z,103981.70
2019-02-23T08:24:26.689Z,103981.28
2019-02-23T08:27:00.341Z,103981.23
2019-02-23T08:29:34.863Z,103976.85
2019-02-23T08:32:07.983Z,103970.05
2019-02-23T08:34:40.958Z,103954.58
2019-02-23T08:37:13.879Z,103937.06
2019-02-23T08:39:46.889Z,103943.16
2019-02-23T08:42:19.813Z,103938.56
2019-02-23T08:44:53.793Z,103938.81
2019-02-23T08:47:26.738Z,103937.12
2019-02-23T08:49:59.497Z,103930.52
2019-02-23T08:52:32.422Z,103925.95
2019-02-23T08:55:05.695Z,103905.23
2019-02-23T08:57:38.753Z,103912.09
2019-02-23T09:00:15.362Z,103901.30
2019-02-23T09:02:48.369Z,103907.08
2019-02-23T09:05:21.228Z,103919.55
2019-02-23T09:07:54.082Z,103907.27
2019-02-23T09:10:26.958Z,103900.39
2019-02-23T09:12:59.788Z,103901.31
2019-02-23T09:15:32.676Z,103894.75
2019-02-23T09:18:05.609Z,103896.73
2019-02-23T09:20:38.372Z,103906.19
2019-02-23T09:23:11.213Z,103907.87
2019-02-23T09:25:44.048Z,103908.98
2019-02-23T09:28:16.863Z,103914.67
2019-02-23T09:30:50.744Z,103914.59
2019-02-23T09:33:23.657Z,103919.23
2019-02-23T09:35:57.460Z,103928.92
2019-02-23T09:38:30.294Z,103925.44
2019-02-23T09:41:03.062Z,103921.97
2019-02-23T09:43:35.914Z,103918.00
2019-02-23T09:46:08.747Z,103909.11
2019-02-23T09:48:41.552Z,103910.78
2019-02-23T09:51:14.342Z,103908.33
2019-02-23T09:53:47.100Z,103915.70
2019-02-23T09:56:20.057Z,103915.66
2019-02-23T09:58:52.979Z,103910.33
2019-02-23T10:01:25.845Z,103910.03
2019-02-23T10:03:59.981Z,103902.78
2019-02-23T10:06:34.395Z,103906.89
2019-02-23T10:09:08.092Z,103902.06
2019-02-23T10:11:41.149Z,103905.16
2019-02-23T10:14:14.112Z,103893.07
2019-02-23T10:16:47.095Z,103891.02
2019-02-23T10:19:20.968Z,103894.13
2019-02-23T10:21:58.518Z,103890.38
2019-02-23T10:24:31.671Z,103889.59
2019-02-23T10:27:06.244Z,103875.17
2019-02-23T10:29:40.651Z,103884.02
2019-02-23T10:32:13.530Z,103888.97
2019-02-23T10:34:46.498Z,103885.62
2019-02-23T10:37:19.484Z,103888.66
2019-02-23T10:39:52.377Z,103893.61
2019-02-23T10:42:25.677Z,103893.86
2019-02-23T10:44:58.709Z,103910.23
2019-02-23T10:47:34.513Z,103908.64
2019-02-23T10:50:08.235Z,103909.68
2019-02-23T10:52:41.038Z,103896.16
2019-02-23T10:55:14.035Z,103894.97
2019-02-23T10:57:50.389Z,103902.44
2019-02-23T11:00:23.987Z,103903.36
2019-02-23T11:02:57.914Z,103899.31
2019-02-23T11:05:33.062Z,103899.25
2019-02-23T11:08:06.319Z,103896.28
2019-02-23T11:10:43.958Z,103897.44
2019-02-23T11:13:17.381Z,103891.03
2019-02-23T11:15:50.456Z,103877.09
2019-02-23T11:18:25.647Z,103866.30
2019-02-23T11:20:58.463Z,103860.26
2019-02-23T11:23:31.255Z,103867.09
2019-02-23T11:26:04.120Z,103859.22
2019-02-23T11:28:37.032Z,103862.98
2019-02-23T11:31:09.929Z,103855.68
2019-02-23T11:33:42.849Z,103853.52
2019-02-23T11:36:15.637Z,103850.78
2019-02-23T11:38:48.479Z,103840.81
2019-02-23T11:41:21.604Z,103836.16
2019-02-23T11:43:54.386Z,103838.57
2019-02-23T11:46:27.515Z,103827.89
2019-02-23T11:49:00.524Z,103832.97
2019-02-23T11:51:33.688Z,103840.34
2019-02-23T11:54:07.112Z,103830.86
2019-02-23T11:56:40.038Z,103822.18
2019-02-23T11:59:13.213Z,103833.61
2019-02-23T12:01:46.136Z,103830.77
2019-02-23T12:04:19.227Z,103830.40
2019-02-23T12:06:53.686Z,103826.33
2019-02-23T12:09:26.699Z,103815.59
2019-02-23T12:12:13.956Z,103816.33
2019-02-23T12:15:02.944Z,103808.74
2019-02-23T12:17:38.220Z,103808.80
2019-02-23T12:20:11.550Z,103818.15
2019-02-23T12:22:44.497Z,103818.19
2019-02-23T12:25:17.595Z,103826.66
2019-02-23T12:27:50.686Z,103818.69
2019-02-23T12:30:23.623Z,103817.39
2019-02-23T12:32:56.547Z,103789.22
2019-02-23T12:35:29.465Z,103785.86
2019-02-23T12:38:02.309Z,103789.56
2019-02-23T12:40:35.185Z,103787.62
2019-02-23T12:43:08.147Z,103799.31
2019-02-23T12:45:40.974Z,103798.91
2019-02-23T12:48:13.782Z,103794.44
2019-02-23T12:50:46.671Z,103798.67
2019-02-23T12:53:19.527Z,103792.25
2019-02-23T12:55:52.311Z,103794.22
2019-02-23T12:58:25.208Z,103796.68
2019-02-23T13:00:57.979Z,103792.05
2019-02-23T13:03:31.857Z,103791.50
2019-02-23T13:06:05.490Z,103794.30
2019-02-23T13:09:17.672Z,103797.44
2019-02-23T13:12:00.899Z,103796.50
2019-02-23T13:15:32.322Z,103786.91
2019-02-23T13:18:59.541Z,103782.36
2019-02-23T13:22:21.221Z,103779.62
2019-02-23T13:25:49.133Z,103774.64
2019-02-23T13:29:09.612Z,103758.72
2019-02-23T13:32:10.600Z,103754.13
2019-02-23T13:35:11.469Z,103752.08
2019-02-23T13:38:26.281Z,103761.82
2019-02-23T13:41:25.741Z,103749.64
2019-02-23T13:44:59.864Z,103742.02
2019-02-23T13:48:27.889Z,103725.55
2019-02-23T13:52:15.810Z,103733.69
2019-02-23T13:56:21.840Z,103727.02
2019-02-23T13:59:54.311Z,103732.17
2019-02-23T14:03:27.601Z,103729.05
2019-02-23T14:07:14.225Z,103731.84
2019-02-23T14:10:50.779Z,103737.61
2019-02-23T14:14:03.911Z,103724.25
2019-02-23T14:17:31.435Z,103725.38
2019-02-23T14:21:17.878Z,103727.30
2019-02-23T14:24:35.886Z,103713.21
2019-02-23T14:28:29.447Z,103700.86
2019-02-23T14:31:47.075Z,103686.88
2019-02-23T14:35:07.131Z,103686.39
2019-02-23T14:38:25.483Z,103672.67
2019-02-23T14:41:50.906Z,103665.91
2019-02-23T14:45:22.058Z,103663.50
2019-02-23T14:48:40.367Z,103682.85
2019-02-23T14:52:27.674Z,103679.63
2019-02-23T14:55:46.376Z,103700.30
2019-02-23T14:59:28.243Z,103697.83
2019-02-23T15:03:19.220Z,103700.87
2019-02-23T15:07:12.570Z,103692.97
2019-02-23T15:10:01.835Z,103680.67
2019-02-23T15:13:32.483Z,103684.50
2019-02-23T15:16:45.992Z,103688.20
2019-02-23T15:19:56.479Z,103681.17
2019-02-23T15:23:02.486Z,103679.64
2019-02-23T15:26:33.950Z,103678.96
2019-02-23T15:29:49.274Z,103670.33
2019-02-23T15:33:07.148Z,103675.36
2019-02-23T15:36:19.856Z,103663.36
2019-02-23T15:39:55.286Z,103649.45
2019-02-23T15:43:11.938Z,103644.89
2019-02-23T15:46:40.171Z,103646.56
2019-02-23T15:49:33.208Z,103632.41
2019-02-23T15:52:08.498Z,103625.05
2019-02-23T15:54:41.615Z,103635.41
2019-02-23T15:57:14.567Z,103641.41
2019-02-23T15:59:47.465Z,103645.81
2019-02-23T16:02:20.369Z,103641.48
2019-02-23T16:04:53.283Z,103640.22
2019-02-23T16:07:26.083Z,103637.11
2019-02-23T16:09:59.977Z,103637.66
2019-02-23T16:12:32.758Z,103637.11
2019-02-23T16:15:06.271Z,103628.97
2019-02-23T16:17:39.141Z,103634.35
2019-02-23T16:20:12.106Z,103634.89
2019-02-23T16:22:45.965Z,103634.08
2019-02-23T16:25:18.932Z,103634.94
2019-02-23T16:27:51.820Z,103639.98
2019-02-23T16:30:24.686Z,103635.10
2019-02-23T16:32:57.562Z,103630.49
2019-02-23T16:35:30.292Z,103629.54
2019-02-23T16:38:03.190Z,103615.48
2019-02-23T16:40:36.148Z,103619.53
2019-02-23T16:43:09.216Z,103615.25
2019-02-23T16:45:41.982Z,103611.85
2019-02-23T16:48:15.109Z,103617.06
2019-02-23T16:50:49.131Z,103608.70
2019-02-23T16:53:22.119Z,103606.16
2019-02-23T16:55:54.965Z,103607.23
2019-02-23T16:58:28.008Z,103614.11
2019-02-23T17:01:04.200Z,103607.27
2019-02-23T17:03:35.914Z,103606.61
2019-02-23T17:06:08.973Z,103601.65
2019-02-23T17:08:41.925Z,103589.97
2019-02-23T17:11:16.057Z,103587.93
2019-02-23T17:13:49.200Z,103582.64
2019-02-23T17:16:22.003Z,103581.12
2019-02-23T17:18:55.584Z,103590.99
2019-02-23T17:21:28.444Z,103600.94
2019-02-23T17:24:01.175Z,103594.47
2019-02-23T17:26:36.818Z,103593.31
2019-02-23T17:29:10.881Z,103590.92
2019-02-23T17:31:43.897Z,103585.88
2019-02-23T17:34:17.010Z,103588.31
2019-02-23T17:36:49.999Z,103589.56
2019-02-23T17:39:22.780Z,103587.42
2019-02-23T17:41:55.641Z,103580.72
2019-02-23T17:44:32.152Z,103573.62
2019-02-23T17:47:06.113Z,103568.81
2019-02-23T17:49:39.175Z,103566.75
2019-02-23T17:52:11.955Z,103563.23
2019-02-23T17:54:44.830Z,103565.17
2019-02-23T17:57:19.775Z,103564.12
2019-02-23T17:59:54.880Z,103561.05
2019-02-23T18:02:27.802Z,103570.91
2019-02-23T18:05:00.604Z,103560.36
2019-02-23T18:07:33.956Z,103558.06
2019-02-23T18:10:07.567Z,103550.10
2019-02-23T18:12:40.519Z,103549.48
2019-02-23T18:15:16.320Z,103548.02
2019-02-23T18:17:52.014Z,103549.20
2019-02-23T18:20:25.033Z,103544.87
2019-02-23T18:23:00.538Z,103543.98
2019-02-23T18:25:33.496Z,103549.55
2019-02-23T18:28:07.260Z,103556.28
2019-02-23T18:30:40.523Z,103554.06
2019-02-23T18:33:13.515Z,103536.70
2019-02-23T18:35:46.565Z,103535.77
2019-02-23T18:38:19.689Z,103538.30
2019-02-23T18:40:52.806Z,103533.45
2019-02-23T18:43:25.699Z,103539.03
2019-02-23T18:45:58.724Z,103541.61
2019-02-23T18:48:31.800Z,103546.77
2019-02-23T18:51:04.724Z,103544.19
2019-02-23T18:53:37.603Z,103550.91
2019-02-23T18:56:10.473Z,103544.16
2019-02-23T18:58:43.382Z,103543.58
2019-02-23T19:01:16.449Z,103546.56
2019-02-23T19:03:51.098Z,103541.26
2019-02-23T19:06:25.103Z,103530.45
2019-02-23T19:08:58.530Z,103533.08
2019-02-23T19:11:31.455Z,103524.41
2019-02-23T19:14:04.667Z,103526.53
2019-02-23T19:16:40.768Z,103523.91
2019-02-23T19:19:13.773Z,103515.67
2019-02-23T19:21:46.963Z,103511.31
2019-02-23T19:24:20.185Z,103508.73
2019-02-23T19:26:53.369Z,103507.89
2019-02-23T19:29:27.160Z,103501.66
2019-02-23T19:32:04.515Z,103498.95
2019-02-23T19:34:38.067Z,103504.52
2019-02-23T19:37:13.260Z,103499.35
2019-02-23T19:39:46.608Z,103485.64
2019-02-23T19:42:19.670Z,103486.77
2019-02-23T19:44:53.016Z,103486.19
2019-02-23T19:47:30.894Z,103484.45
2019-02-23T19:50:15.070Z,103479.11
2019-02-23T19:52:48.161Z,103471.73
2019-02-23T19:55:21.707Z,103473.19
2019-02-23T19:57:54.683Z,103469.77
2019-02-23T20:00:27.591Z,103469.28
2019-02-23T20:03:00.455Z,103468.70
2019-02-23T20:05:33.628Z,103460.34
2019-02-23T20:08:08.143Z,103455.44
2019-02-23T20:10:42.875Z,103456.95
2019-02-23T20:13:16.377Z,103454.64
2019-02-23T20:15:49.316Z,103463.57
2019-02-23T20:18:22.318Z,103461.48
2019-02-23T20:20:55.470Z,103467.94
2019-02-23T20:23:28.667Z,103478.69
2019-02-23T20:26:55.462Z,103480.37
2019-02-23T20:29:26.513Z,103476.91
2019-02-23T20:31:59.610Z,103482.02
2019-02-23T20:34:32.523Z,103485.00
2019-02-23T20:37:05.437Z,103489.45
2019-02-23T20:39:38.560Z,103482.34
2019-02-23T20:42:11.749Z,103482.44
2019-02-23T20:44:44.736Z,103479.95
2019-02-23T20:47:17.849Z,103480.87
2019-02-23T20:49:50.913Z,103468.88
2019-02-23T20:52:23.773Z,103461.14
2019-02-23T20:54:56.706Z,103453.94
2019-02-23T20:57:29.555Z,103458.34
2019-02-23T21:00:02.470Z,103460.51
2019-02-23T21:02:37.473Z,103457.19
2019-02-23T21:05:11.929Z,103467.63
2019-02-23T21:07:44.868Z,103456.33
2019-02-23T21:10:17.747Z,103456.33
2019-02-23T21:12:50.523Z,103452.02
2019-02-23T21:15:23.546Z,103451.58
2019-02-23T21:17:56.514Z,103449.40
2019-02-23T21:20:29.394Z,103446.73
2019-02-23T21:23:02.180Z,103451.53
2019-02-23T21:25:36.231Z,103449.00
2019-02-23T21:28:09.157Z,103446.51
2019-02-23T21:30:42.179Z,103446.55
2019-02-23T21:33:15.258Z,103442.81
2019-02-23T21:35:48.147Z,103445.03
2019-02-23T21:38:30.657Z,103445.96
2019-02-23T21:41:05.796Z,103445.24
2019-02-23T21:43:38.784Z,103442.75
2019-02-23T21:46:11.567Z,103438.05
2019-02-23T21:48:44.463Z,103429.53
2019-02-23T21:51:17.449Z,103429.63
2019-02-23T21:53:50.436Z,103434.42
2019-02-23T21:56:23.945Z,103439.67
2019-02-23T21:58:56.977Z,103443.27
2019-02-23T22:01:29.904Z,103440.36
2019-02-23T22:04:02.865Z,103427.82
2019-02-23T22:06:35.971Z,103424.44
2019-02-23T22:09:10.132Z,103423.14
2019-02-23T22:11:44.609Z,103414.95
2019-02-23T22:14:17.447Z,103415.08
2019-02-23T22:16:50.637Z,103412.90
2019-02-23T22:19:23.751Z,103415.00
2019-02-23T22:21:56.733Z,103417.75
2019-02-23T22:24:30.680Z,103423.07
2019-02-23T22:27:04.859Z,103420.53
2019-02-23T22:29:38.042Z,103420.84
2019-02-23T22:32:11.197Z,103417.42
2019-02-23T22:34:44.272Z,103410.48
2019-02-23T22:37:17.240Z,103410.48
2019-02-23T22:39:50.219Z,103409.23
2019-02-23T22:42:23.108Z,103409.19
2019-02-23T22:44:56.146Z,103410.92
2019-02-23T22:47:29.356Z,103410.52
2019-02-23T22:50:02.478Z,103408.71
2019-02-23T22:52:36.516Z,103410.52
2019-02-23T22:55:09.590Z,103401.33
2019-02-23T22:57:42.445Z,103404.27
2019-02-23T23:00:18.260Z,103404.67
2019-02-23T23:02:52.781Z,103406.89
2019-02-23T23:05:28.933Z,103417.75
2019-02-23T23:08:02.431Z,103407.25
2019-02-23T23:10:39.450Z,103402.94
2019-02-23T23:13:13.878Z,103407.70
2019-02-23T23:15:47.064Z,103392.98
2019-02-23T23:18:23.283Z,103393.38
2019-02-23T23:20:58.550Z,103395.59
2019-02-23T23:23:31.661Z,103400.80
2019-02-23T23:26:04.704Z,103395.23
2019-02-23T23:28:37.790Z,103387.05
2019-02-23T23:31:11.039Z,103386.92
2019-02-23T23:33:43.933Z,103386.52
2019-02-23T23:36:16.668Z,103385.64
2019-02-23T23:38:49.621Z,103388.30
2019-02-23T23:41:22.507Z,103382.65
2019-02-23T23:43:55.530Z,103388.38
2019-02-23T23:46:28.640Z,103398.91
2019-02-23T23:49:01.622Z,103386.00
2019-02-23T23:51:34.480Z,103389.51
2019-02-23T23:54:07.408Z,103386.56
2019-02-23T23:56:40.867Z,103389.63
2019-02-23T23:59:13.655Z,103397.94
